sensor_id;sensor_type;location;lat;lon;timestamp;temperature;humidity
51950;DHT22;37974;53.218;6.640;2024-01-25T00:02:17;7.20;99.90
51950;DHT22;37974;53.218;6.640;2024-01-25T00:04:43;7.20;99.90
51950;DHT22;37974;53.218;6.640;2024-01-25T00:07:09;7.10;99.90
51950;DHT22;37974;53.218;6.640;2024-01-25T00:09:35;7.10;99.90
51950;DHT22;37974;53.218;6.640;2024-01-25T00:12:01;7.10;99.90
51950;DHT22;37974;53.218;6.640;2024-01-25T00:14:27;7.00;99.90
51950;DHT22;37974;53.218;6.640;2024-01-25T00:16:52;6.90;99.90
51950;DHT22;37974;53.218;6.640;2024-01-25T00:19:18;6.90;99.90
51950;DHT22;37974;53.218;6.640;2024-01-25T00:21:44;6.90;99.90
51950;DHT22;37974;53.218;6.640;2024-01-25T00:24:12;6.90;99.90
51950;DHT22;37974;53.218;6.640;2024-01-25T00:26:38;6.90;99.90
51950;DHT22;37974;53.218;6.640;2024-01-25T00:29:04;6.80;99.90
51950;DHT22;37974;53.218;6.640;2024-01-25T00:31:30;6.80;99.90
51950;DHT22;37974;53.218;6.640;2024-01-25T00:33:57;6.80;99.90
51950;DHT22;37974;53.218;6.640;2024-01-25T00:36:25;6.80;99.90
51950;DHT22;37974;53.218;6.640;2024-01-25T00:38:51;6.70;99.90
51950;DHT22;37974;53.218;6.640;2024-01-25T00:41:18;6.70;99.90
51950;DHT22;37974;53.218;6.640;2024-01-25T00:43:46;6.70;99.90
51950;DHT22;37974;53.218;6.640;2024-01-25T00:46:12;6.60;99.90
51950;DHT22;37974;53.218;6.640;2024-01-25T00:48:38;6.50;99.90
51950;DHT22;37974;53.218;6.640;2024-01-25T00:51:07;6.50;99.90
51950;DHT22;37974;53.218;6.640;2024-01-25T00:53:34;6.50;99.90
51950;DHT22;37974;53.218;6.640;2024-01-25T00:56:00;6.50;99.90
51950;DHT22;37974;53.218;6.640;2024-01-25T00:58:26;6.50;99.90
51950;DHT22;37974;53.218;6.640;2024-01-25T01:00:52;6.40;99.90
51950;DHT22;37974;53.218;6.640;2024-01-25T01:03:18;6.40;99.90
51950;DHT22;37974;53.218;6.640;2024-01-25T01:05:45;6.40;99.90
51950;DHT22;37974;53.218;6.640;2024-01-25T01:08:11;6.30;99.90
51950;DHT22;37974;53.218;6.640;2024-01-25T01:10:37;6.30;99.90
51950;DHT22;37974;53.218;6.640;2024-01-25T01:13:03;6.30;99.90
51950;DHT22;37974;53.218;6.640;2024-01-25T01:15:29;6.20;99.90
51950;DHT22;37974;53.218;6.640;2024-01-25T01:17:54;6.20;99.90
51950;DHT22;37974;53.218;6.640;2024-01-25T01:20:20;6.20;99.90
51950;DHT22;37974;53.218;6.640;2024-01-25T01:22:46;6.20;99.90
51950;DHT22;37974;53.218;6.640;2024-01-25T01:25:11;6.20;99.90
51950;DHT22;37974;53.218;6.640;2024-01-25T01:27:37;6.20;99.90
51950;DHT22;37974;53.218;6.640;2024-01-25T01:30:03;6.20;99.90
51950;DHT22;37974;53.218;6.640;2024-01-25T01:32:29;6.20;99.90
51950;DHT22;37974;53.218;6.640;2024-01-25T01:34:55;6.20;99.90
51950;DHT22;37974;53.218;6.640;2024-01-25T01:37:22;6.20;99.90
51950;DHT22;37974;53.218;6.640;2024-01-25T01:39:47;6.20;99.90
51950;DHT22;37974;53.218;6.640;2024-01-25T01:42:13;6.20;99.90
51950;DHT22;37974;53.218;6.640;2024-01-25T01:44:39;6.20;99.90
51950;DHT22;37974;53.218;6.640;2024-01-25T01:47:05;6.20;99.90
51950;DHT22;37974;53.218;6.640;2024-01-25T01:49:31;6.20;99.90
51950;DHT22;37974;53.218;6.640;2024-01-25T01:51:57;6.20;99.90
51950;DHT22;37974;53.218;6.640;2024-01-25T01:54:23;6.20;99.90
51950;DHT22;37974;53.218;6.640;2024-01-25T01:56:50;6.10;99.90
51950;DHT22;37974;53.218;6.640;2024-01-25T01:59:16;6.20;99.90
51950;DHT22;37974;53.218;6.640;2024-01-25T02:01:42;6.20;99.90
51950;DHT22;37974;53.218;6.640;2024-01-25T02:04:08;6.10;99.90
51950;DHT22;37974;53.218;6.640;2024-01-25T02:06:34;6.10;99.90
51950;DHT22;37974;53.218;6.640;2024-01-25T02:09:00;6.10;99.90
51950;DHT22;37974;53.218;6.640;2024-01-25T02:11:26;6.10;99.90
51950;DHT22;37974;53.218;6.640;2024-01-25T02:13:52;6.10;99.90
51950;DHT22;37974;53.218;6.640;2024-01-25T02:16:17;6.10;99.90
51950;DHT22;37974;53.218;6.640;2024-01-25T02:18:45;6.00;99.90
51950;DHT22;37974;53.218;6.640;2024-01-25T02:21:12;6.20;99.90
51950;DHT22;37974;53.218;6.640;2024-01-25T02:23:38;6.00;99.90
51950;DHT22;37974;53.218;6.640;2024-01-25T02:26:03;6.10;99.90
51950;DHT22;37974;53.218;6.640;2024-01-25T02:28:29;6.00;99.90
51950;DHT22;37974;53.218;6.640;2024-01-25T02:30:55;6.00;99.90
51950;DHT22;37974;53.218;6.640;2024-01-25T02:33:20;5.90;99.90
51950;DHT22;37974;53.218;6.640;2024-01-25T02:35:46;5.90;99.90
51950;DHT22;37974;53.218;6.640;2024-01-25T02:38:12;6.00;99.90
51950;DHT22;37974;53.218;6.640;2024-01-25T02:40:37;5.90;99.90
51950;DHT22;37974;53.218;6.640;2024-01-25T02:43:03;5.90;99.90
51950;DHT22;37974;53.218;6.640;2024-01-25T02:45:29;5.90;99.90
51950;DHT22;37974;53.218;6.640;2024-01-25T02:47:55;5.90;99.90
51950;DHT22;37974;53.218;6.640;2024-01-25T02:50:20;5.90;99.90
51950;DHT22;37974;53.218;6.640;2024-01-25T02:52:46;5.90;99.90
51950;DHT22;37974;53.218;6.640;2024-01-25T02:55:12;5.90;99.90
51950;DHT22;37974;53.218;6.640;2024-01-25T02:57:38;5.80;99.90
51950;DHT22;37974;53.218;6.640;2024-01-25T03:00:04;5.80;99.90
51950;DHT22;37974;53.218;6.640;2024-01-25T03:02:30;5.80;99.90
51950;DHT22;37974;53.218;6.640;2024-01-25T03:04:56;5.80;99.90
51950;DHT22;37974;53.218;6.640;2024-01-25T03:07:22;5.80;99.90
51950;DHT22;37974;53.218;6.640;2024-01-25T03:09:48;5.70;99.90
51950;DHT22;37974;53.218;6.640;2024-01-25T03:12:14;5.70;99.90
51950;DHT22;37974;53.218;6.640;2024-01-25T03:14:39;5.60;99.90
51950;DHT22;37974;53.218;6.640;2024-01-25T03:17:05;5.60;99.90
51950;DHT22;37974;53.218;6.640;2024-01-25T03:19:31;5.60;99.90
51950;DHT22;37974;53.218;6.640;2024-01-25T03:21:57;5.50;99.90
51950;DHT22;37974;53.218;6.640;2024-01-25T03:24:22;5.50;99.90
51950;DHT22;37974;53.218;6.640;2024-01-25T03:26:49;5.50;99.90
51950;DHT22;37974;53.218;6.640;2024-01-25T03:29:15;5.50;99.90
51950;DHT22;37974;53.218;6.640;2024-01-25T03:31:40;5.40;99.90
51950;DHT22;37974;53.218;6.640;2024-01-25T03:34:06;5.70;99.90
51950;DHT22;37974;53.218;6.640;2024-01-25T03:36:32;5.40;99.90
51950;DHT22;37974;53.218;6.640;2024-01-25T03:38:58;5.40;99.90
51950;DHT22;37974;53.218;6.640;2024-01-25T03:41:24;5.60;99.90
51950;DHT22;37974;53.218;6.640;2024-01-25T03:43:50;5.40;99.90
51950;DHT22;37974;53.218;6.640;2024-01-25T03:46:16;5.30;99.90
51950;DHT22;37974;53.218;6.640;2024-01-25T03:48:41;5.30;99.90
51950;DHT22;37974;53.218;6.640;2024-01-25T03:51:08;5.30;99.90
51950;DHT22;37974;53.218;6.640;2024-01-25T03:53:33;5.20;99.90
51950;DHT22;37974;53.218;6.640;2024-01-25T03:55:59;5.20;99.90
51950;DHT22;37974;53.218;6.640;2024-01-25T03:58:25;5.20;99.90
51950;DHT22;37974;53.218;6.640;2024-01-25T04:00:51;5.30;99.90
51950;DHT22;37974;53.218;6.640;2024-01-25T04:03:16;5.20;99.90
51950;DHT22;37974;53.218;6.640;2024-01-25T04:05:42;5.20;99.90
51950;DHT22;37974;53.218;6.640;2024-01-25T04:08:08;5.20;99.90
51950;DHT22;37974;53.218;6.640;2024-01-25T04:10:34;5.20;99.90
51950;DHT22;37974;53.218;6.640;2024-01-25T04:12:59;5.20;99.90
51950;DHT22;37974;53.218;6.640;2024-01-25T04:15:27;5.20;99.90
51950;DHT22;37974;53.218;6.640;2024-01-25T04:17:53;5.20;99.90
51950;DHT22;37974;53.218;6.640;2024-01-25T04:20:19;5.10;99.90
51950;DHT22;37974;53.218;6.640;2024-01-25T04:22:45;5.10;99.90
51950;DHT22;37974;53.218;6.640;2024-01-25T04:25:11;5.10;99.90
51950;DHT22;37974;53.218;6.640;2024-01-25T04:27:38;5.10;99.90
51950;DHT22;37974;53.218;6.640;2024-01-25T04:30:05;5.10;99.90
51950;DHT22;37974;53.218;6.640;2024-01-25T04:32:31;5.10;99.90
51950;DHT22;37974;53.218;6.640;2024-01-25T04:34:56;5.10;99.90
51950;DHT22;37974;53.218;6.640;2024-01-25T04:37:22;5.10;99.90
51950;DHT22;37974;53.218;6.640;2024-01-25T04:39:48;5.10;99.90
51950;DHT22;37974;53.218;6.640;2024-01-25T04:42:14;5.00;99.90
51950;DHT22;37974;53.218;6.640;2024-01-25T04:44:39;5.30;99.90
51950;DHT22;37974;53.218;6.640;2024-01-25T04:47:05;5.00;99.90
51950;DHT22;37974;53.218;6.640;2024-01-25T04:49:31;5.00;99.90
51950;DHT22;37974;53.218;6.640;2024-01-25T04:51:57;5.10;99.90
51950;DHT22;37974;53.218;6.640;2024-01-25T04:54:22;5.00;99.90
51950;DHT22;37974;53.218;6.640;2024-01-25T04:56:48;4.90;99.90
51950;DHT22;37974;53.218;6.640;2024-01-25T04:59:14;4.90;99.90
51950;DHT22;37974;53.218;6.640;2024-01-25T05:01:40;4.90;99.90
51950;DHT22;37974;53.218;6.640;2024-01-25T05:04:05;4.90;99.90
51950;DHT22;37974;53.218;6.640;2024-01-25T05:06:31;5.10;99.90
51950;DHT22;37974;53.218;6.640;2024-01-25T05:08:57;4.80;99.90
51950;DHT22;37974;53.218;6.640;2024-01-25T05:11:22;4.80;99.90
51950;DHT22;37974;53.218;6.640;2024-01-25T05:13:48;4.80;99.90
51950;DHT22;37974;53.218;6.640;2024-01-25T05:16:14;4.70;99.90
51950;DHT22;37974;53.218;6.640;2024-01-25T05:18:39;4.70;99.90
51950;DHT22;37974;53.218;6.640;2024-01-25T05:21:05;4.70;99.90
51950;DHT22;37974;53.218;6.640;2024-01-25T05:23:31;4.70;99.90
51950;DHT22;37974;53.218;6.640;2024-01-25T05:25:57;4.70;99.90
51950;DHT22;37974;53.218;6.640;2024-01-25T05:28:23;4.80;99.90
51950;DHT22;37974;53.218;6.640;2024-01-25T05:30:50;4.70;99.90
51950;DHT22;37974;53.218;6.640;2024-01-25T05:33:16;4.70;99.90
51950;DHT22;37974;53.218;6.640;2024-01-25T05:35:42;4.70;99.90
51950;DHT22;37974;53.218;6.640;2024-01-25T05:38:07;4.70;99.90
51950;DHT22;37974;53.218;6.640;2024-01-25T05:40:33;4.80;99.90
51950;DHT22;37974;53.218;6.640;2024-01-25T05:42:59;4.70;99.90
51950;DHT22;37974;53.218;6.640;2024-01-25T05:45:25;4.70;99.90
51950;DHT22;37974;53.218;6.640;2024-01-25T05:47:51;4.70;99.90
51950;DHT22;37974;53.218;6.640;2024-01-25T05:50:18;4.60;99.90
51950;DHT22;37974;53.218;6.640;2024-01-25T05:52:43;4.60;99.90
51950;DHT22;37974;53.218;6.640;2024-01-25T05:55:09;4.60;99.90
51950;DHT22;37974;53.218;6.640;2024-01-25T05:57:36;4.60;99.90
51950;DHT22;37974;53.218;6.640;2024-01-25T06:00:03;4.50;99.90
51950;DHT22;37974;53.218;6.640;2024-01-25T06:02:28;4.50;99.90
51950;DHT22;37974;53.218;6.640;2024-01-25T06:04:54;4.50;99.90
51950;DHT22;37974;53.218;6.640;2024-01-25T06:07:23;4.50;99.90
51950;DHT22;37974;53.218;6.640;2024-01-25T06:09:49;4.50;99.90
51950;DHT22;37974;53.218;6.640;2024-01-25T06:12:15;4.50;99.90
51950;DHT22;37974;53.218;6.640;2024-01-25T06:14:40;4.50;99.90
51950;DHT22;37974;53.218;6.640;2024-01-25T06:17:06;4.50;99.90
51950;DHT22;37974;53.218;6.640;2024-01-25T06:19:32;4.80;99.90
51950;DHT22;37974;53.218;6.640;2024-01-25T06:21:58;4.40;99.90
51950;DHT22;37974;53.218;6.640;2024-01-25T06:24:24;4.40;99.90
51950;DHT22;37974;53.218;6.640;2024-01-25T06:26:50;4.90;99.90
51950;DHT22;37974;53.218;6.640;2024-01-25T06:29:15;4.30;99.90
51950;DHT22;37974;53.218;6.640;2024-01-25T06:31:43;4.30;99.90
51950;DHT22;37974;53.218;6.640;2024-01-25T06:34:09;4.50;99.90
51950;DHT22;37974;53.218;6.640;2024-01-25T06:36:35;4.30;99.90
51950;DHT22;37974;53.218;6.640;2024-01-25T06:39:01;4.20;99.90
51950;DHT22;37974;53.218;6.640;2024-01-25T06:41:26;4.20;99.90
51950;DHT22;37974;53.218;6.640;2024-01-25T06:43:52;4.20;99.90
51950;DHT22;37974;53.218;6.640;2024-01-25T06:46:18;4.20;99.90
51950;DHT22;37974;53.218;6.640;2024-01-25T06:48:43;4.60;99.90
51950;DHT22;37974;53.218;6.640;2024-01-25T06:51:09;4.20;99.90
51950;DHT22;37974;53.218;6.640;2024-01-25T06:53:35;4.30;99.90
51950;DHT22;37974;53.218;6.640;2024-01-25T06:56:00;4.20;99.90
51950;DHT22;37974;53.218;6.640;2024-01-25T06:58:26;4.30;99.90
51950;DHT22;37974;53.218;6.640;2024-01-25T07:00:52;4.20;99.90
51950;DHT22;37974;53.218;6.640;2024-01-25T07:03:18;4.60;99.90
51950;DHT22;37974;53.218;6.640;2024-01-25T07:05:44;4.20;99.90
51950;DHT22;37974;53.218;6.640;2024-01-25T07:08:10;4.30;99.90
51950;DHT22;37974;53.218;6.640;2024-01-25T07:10:39;4.20;99.90
51950;DHT22;37974;53.218;6.640;2024-01-25T07:13:05;4.20;99.90
51950;DHT22;37974;53.218;6.640;2024-01-25T07:15:31;4.10;99.90
51950;DHT22;37974;53.218;6.640;2024-01-25T07:17:57;4.20;99.90
51950;DHT22;37974;53.218;6.640;2024-01-25T07:20:23;4.20;99.90
51950;DHT22;37974;53.218;6.640;2024-01-25T07:22:49;4.10;99.90
51950;DHT22;37974;53.218;6.640;2024-01-25T07:25:15;4.10;99.90
51950;DHT22;37974;53.218;6.640;2024-01-25T07:27:44;4.10;99.90
51950;DHT22;37974;53.218;6.640;2024-01-25T07:30:11;4.10;99.90
51950;DHT22;37974;53.218;6.640;2024-01-25T07:32:38;4.10;99.90
51950;DHT22;37974;53.218;6.640;2024-01-25T07:35:05;4.10;99.90
51950;DHT22;37974;53.218;6.640;2024-01-25T07:37:31;4.10;99.90
51950;DHT22;37974;53.218;6.640;2024-01-25T07:39:57;4.10;99.90
51950;DHT22;37974;53.218;6.640;2024-01-25T07:42:22;4.10;99.90
51950;DHT22;37974;53.218;6.640;2024-01-25T07:44:48;4.20;99.90
51950;DHT22;37974;53.218;6.640;2024-01-25T07:47:14;4.10;99.90
51950;DHT22;37974;53.218;6.640;2024-01-25T07:49:41;4.10;99.90
51950;DHT22;37974;53.218;6.640;2024-01-25T07:52:06;4.10;99.90
51950;DHT22;37974;53.218;6.640;2024-01-25T07:54:32;4.10;99.90
51950;DHT22;37974;53.218;6.640;2024-01-25T07:56:58;4.10;99.90
51950;DHT22;37974;53.218;6.640;2024-01-25T07:59:23;4.20;99.90
51950;DHT22;37974;53.218;6.640;2024-01-25T08:01:49;4.20;99.90
51950;DHT22;37974;53.218;6.640;2024-01-25T08:04:15;4.30;99.90
51950;DHT22;37974;53.218;6.640;2024-01-25T08:06:40;4.30;99.90
51950;DHT22;37974;53.218;6.640;2024-01-25T08:09:06;4.30;99.90
51950;DHT22;37974;53.218;6.640;2024-01-25T08:11:34;4.20;99.90
51950;DHT22;37974;53.218;6.640;2024-01-25T08:14:00;4.30;99.90
51950;DHT22;37974;53.218;6.640;2024-01-25T08:16:26;4.30;99.90
51950;DHT22;37974;53.218;6.640;2024-01-25T08:18:52;4.40;99.90
51950;DHT22;37974;53.218;6.640;2024-01-25T08:21:17;4.30;99.90
51950;DHT22;37974;53.218;6.640;2024-01-25T08:23:43;4.30;99.90
51950;DHT22;37974;53.218;6.640;2024-01-25T08:26:09;4.30;99.90
51950;DHT22;37974;53.218;6.640;2024-01-25T08:28:35;4.30;99.90
51950;DHT22;37974;53.218;6.640;2024-01-25T08:31:01;4.40;99.90
51950;DHT22;37974;53.218;6.640;2024-01-25T08:33:27;4.40;99.90
51950;DHT22;37974;53.218;6.640;2024-01-25T08:35:53;4.40;99.90
51950;DHT22;37974;53.218;6.640;2024-01-25T08:38:19;4.50;99.90
51950;DHT22;37974;53.218;6.640;2024-01-25T08:40:45;4.50;99.90
51950;DHT22;37974;53.218;6.640;2024-01-25T08:43:10;4.50;99.90
51950;DHT22;37974;53.218;6.640;2024-01-25T08:45:36;4.60;99.90
51950;DHT22;37974;53.218;6.640;2024-01-25T08:48:04;4.60;99.90
51950;DHT22;37974;53.218;6.640;2024-01-25T08:50:30;4.50;99.90
51950;DHT22;37974;53.218;6.640;2024-01-25T08:52:55;4.60;99.90
51950;DHT22;37974;53.218;6.640;2024-01-25T08:55:21;4.70;99.90
51950;DHT22;37974;53.218;6.640;2024-01-25T08:57:48;4.70;99.90
51950;DHT22;37974;53.218;6.640;2024-01-25T09:00:14;4.70;99.90
51950;DHT22;37974;53.218;6.640;2024-01-25T09:02:41;4.80;99.90
51950;DHT22;37974;53.218;6.640;2024-01-25T09:05:08;4.80;99.90
51950;DHT22;37974;53.218;6.640;2024-01-25T09:07:34;4.80;99.90
51950;DHT22;37974;53.218;6.640;2024-01-25T09:10:00;4.90;99.90
51950;DHT22;37974;53.218;6.640;2024-01-25T09:12:26;4.90;99.90
51950;DHT22;37974;53.218;6.640;2024-01-25T09:14:51;4.90;99.90
51950;DHT22;37974;53.218;6.640;2024-01-25T09:17:17;5.00;99.90
51950;DHT22;37974;53.218;6.640;2024-01-25T09:19:49;5.00;99.90
51950;DHT22;37974;53.218;6.640;2024-01-25T09:22:17;5.00;99.90
51950;DHT22;37974;53.218;6.640;2024-01-25T09:24:46;5.00;99.90
51950;DHT22;37974;53.218;6.640;2024-01-25T09:27:12;5.10;99.90
51950;DHT22;37974;53.218;6.640;2024-01-25T09:29:39;5.10;99.90
51950;DHT22;37974;53.218;6.640;2024-01-25T09:32:06;5.20;99.90
51950;DHT22;37974;53.218;6.640;2024-01-25T09:34:32;5.20;99.90
51950;DHT22;37974;53.218;6.640;2024-01-25T09:36:58;5.30;99.90
51950;DHT22;37974;53.218;6.640;2024-01-25T09:39:23;5.30;99.90
51950;DHT22;37974;53.218;6.640;2024-01-25T09:41:49;5.30;99.90
51950;DHT22;37974;53.218;6.640;2024-01-25T09:44:15;5.40;99.90
51950;DHT22;37974;53.218;6.640;2024-01-25T09:46:43;5.50;99.90
51950;DHT22;37974;53.218;6.640;2024-01-25T09:49:11;5.50;99.90
51950;DHT22;37974;53.218;6.640;2024-01-25T09:51:39;5.50;99.90
51950;DHT22;37974;53.218;6.640;2024-01-25T09:54:05;5.60;99.90
51950;DHT22;37974;53.218;6.640;2024-01-25T09:56:32;5.60;99.90
51950;DHT22;37974;53.218;6.640;2024-01-25T09:58:59;5.70;99.90
51950;DHT22;37974;53.218;6.640;2024-01-25T10:01:27;5.70;99.90
51950;DHT22;37974;53.218;6.640;2024-01-25T10:03:53;5.70;99.90
51950;DHT22;37974;53.218;6.640;2024-01-25T10:06:22;5.70;99.90
51950;DHT22;37974;53.218;6.640;2024-01-25T10:08:48;5.70;99.90
51950;DHT22;37974;53.218;6.640;2024-01-25T10:11:14;5.70;99.90
51950;DHT22;37974;53.218;6.640;2024-01-25T10:13:42;5.70;99.90
51950;DHT22;37974;53.218;6.640;2024-01-25T10:16:16;5.90;99.90
51950;DHT22;37974;53.218;6.640;2024-01-25T10:18:42;5.90;99.90
51950;DHT22;37974;53.218;6.640;2024-01-25T10:21:13;6.00;99.90
51950;DHT22;37974;53.218;6.640;2024-01-25T10:23:39;6.10;99.90
51950;DHT22;37974;53.218;6.640;2024-01-25T10:26:07;6.10;99.90
51950;DHT22;37974;53.218;6.640;2024-01-25T10:28:33;6.20;99.90
51950;DHT22;37974;53.218;6.640;2024-01-25T10:31:00;6.20;99.90
51950;DHT22;37974;53.218;6.640;2024-01-25T10:33:27;6.30;99.90
51950;DHT22;37974;53.218;6.640;2024-01-25T10:35:54;6.30;99.90
51950;DHT22;37974;53.218;6.640;2024-01-25T10:38:25;6.30;99.90
51950;DHT22;37974;53.218;6.640;2024-01-25T10:40:52;6.30;99.90
51950;DHT22;37974;53.218;6.640;2024-01-25T10:43:19;6.10;99.90
51950;DHT22;37974;53.218;6.640;2024-01-25T10:45:45;6.10;99.90
51950;DHT22;37974;53.218;6.640;2024-01-25T10:48:12;6.10;99.90
51950;DHT22;37974;53.218;6.640;2024-01-25T10:50:38;6.10;99.90
51950;DHT22;37974;53.218;6.640;2024-01-25T10:53:06;6.20;99.90
51950;DHT22;37974;53.218;6.640;2024-01-25T10:55:33;6.20;99.90
51950;DHT22;37974;53.218;6.640;2024-01-25T10:57:58;6.20;99.90
51950;DHT22;37974;53.218;6.640;2024-01-25T11:00:24;6.20;99.90
51950;DHT22;37974;53.218;6.640;2024-01-25T11:02:51;6.30;99.90
51950;DHT22;37974;53.218;6.640;2024-01-25T11:05:17;6.40;99.90
51950;DHT22;37974;53.218;6.640;2024-01-25T11:07:48;6.50;99.90
51950;DHT22;37974;53.218;6.640;2024-01-25T11:10:16;6.60;99.90
51950;DHT22;37974;53.218;6.640;2024-01-25T11:15:29;6.90;99.90
51950;DHT22;37974;53.218;6.640;2024-01-25T11:17:55;7.00;99.90
51950;DHT22;37974;53.218;6.640;2024-01-25T11:20:23;7.00;99.90
51950;DHT22;37974;53.218;6.640;2024-01-25T11:22:56;7.00;99.90
51950;DHT22;37974;53.218;6.640;2024-01-25T11:25:22;7.00;99.90
51950;DHT22;37974;53.218;6.640;2024-01-25T11:27:49;7.10;99.90
51950;DHT22;37974;53.218;6.640;2024-01-25T11:30:18;7.10;99.90
51950;DHT22;37974;53.218;6.640;2024-01-25T11:32:46;7.10;99.90
51950;DHT22;37974;53.218;6.640;2024-01-25T11:35:13;7.10;99.90
51950;DHT22;37974;53.218;6.640;2024-01-25T11:37:45;7.10;99.90
51950;DHT22;37974;53.218;6.640;2024-01-25T11:40:12;7.10;99.90
51950;DHT22;37974;53.218;6.640;2024-01-25T11:42:39;7.20;99.90
51950;DHT22;37974;53.218;6.640;2024-01-25T11:45:07;7.20;99.90
51950;DHT22;37974;53.218;6.640;2024-01-25T11:47:34;7.20;99.90
51950;DHT22;37974;53.218;6.640;2024-01-25T11:50:00;7.20;99.90
51950;DHT22;37974;53.218;6.640;2024-01-25T11:52:25;7.20;99.90
51950;DHT22;37974;53.218;6.640;2024-01-25T11:54:51;7.10;99.90
51950;DHT22;37974;53.218;6.640;2024-01-25T11:57:18;7.20;99.90
51950;DHT22;37974;53.218;6.640;2024-01-25T11:59:44;7.20;99.90
51950;DHT22;37974;53.218;6.640;2024-01-25T12:02:12;7.20;99.90
51950;DHT22;37974;53.218;6.640;2024-01-25T12:04:39;7.20;99.90
51950;DHT22;37974;53.218;6.640;2024-01-25T12:07:05;7.20;99.90
51950;DHT22;37974;53.218;6.640;2024-01-25T12:09:32;7.20;99.90
51950;DHT22;37974;53.218;6.640;2024-01-25T12:12:00;7.30;99.90
51950;DHT22;37974;53.218;6.640;2024-01-25T12:14:27;7.30;99.90
51950;DHT22;37974;53.218;6.640;2024-01-25T12:16:55;7.40;99.90
51950;DHT22;37974;53.218;6.640;2024-01-25T12:19:21;7.40;99.90
51950;DHT22;37974;53.218;6.640;2024-01-25T12:21:47;7.50;99.90
51950;DHT22;37974;53.218;6.640;2024-01-25T12:24:13;7.50;99.90
51950;DHT22;37974;53.218;6.640;2024-01-25T12:26:41;7.50;99.90
51950;DHT22;37974;53.218;6.640;2024-01-25T12:29:07;7.60;99.90
51950;DHT22;37974;53.218;6.640;2024-01-25T12:31:34;7.60;99.90
51950;DHT22;37974;53.218;6.640;2024-01-25T12:34:01;7.60;99.90
51950;DHT22;37974;53.218;6.640;2024-01-25T12:36:26;7.60;99.90
51950;DHT22;37974;53.218;6.640;2024-01-25T12:38:52;7.70;99.90
51950;DHT22;37974;53.218;6.640;2024-01-25T12:41:18;7.70;99.90
51950;DHT22;37974;53.218;6.640;2024-01-25T12:43:43;7.90;99.90
51950;DHT22;37974;53.218;6.640;2024-01-25T12:46:09;8.00;99.90
51950;DHT22;37974;53.218;6.640;2024-01-25T12:48:35;8.00;99.90
51950;DHT22;37974;53.218;6.640;2024-01-25T12:51:01;8.00;99.90
51950;DHT22;37974;53.218;6.640;2024-01-25T12:53:27;8.00;99.90
51950;DHT22;37974;53.218;6.640;2024-01-25T12:55:53;8.00;99.90
51950;DHT22;37974;53.218;6.640;2024-01-25T12:58:19;8.00;99.90
51950;DHT22;37974;53.218;6.640;2024-01-25T13:00:44;7.90;99.90
51950;DHT22;37974;53.218;6.640;2024-01-25T13:03:11;7.90;99.90
51950;DHT22;37974;53.218;6.640;2024-01-25T13:05:37;7.80;99.90
51950;DHT22;37974;53.218;6.640;2024-01-25T13:08:06;7.70;99.90
51950;DHT22;37974;53.218;6.640;2024-01-25T13:10:31;7.70;99.90
51950;DHT22;37974;53.218;6.640;2024-01-25T13:12:58;7.60;99.90
51950;DHT22;37974;53.218;6.640;2024-01-25T13:15:24;7.60;99.90
51950;DHT22;37974;53.218;6.640;2024-01-25T13:17:49;7.60;99.90
51950;DHT22;37974;53.218;6.640;2024-01-25T13:20:15;7.60;99.90
51950;DHT22;37974;53.218;6.640;2024-01-25T13:22:41;7.60;99.90
51950;DHT22;37974;53.218;6.640;2024-01-25T13:25:07;7.60;99.90
51950;DHT22;37974;53.218;6.640;2024-01-25T13:27:35;7.60;99.90
51950;DHT22;37974;53.218;6.640;2024-01-25T13:30:01;7.60;99.90
51950;DHT22;37974;53.218;6.640;2024-01-25T13:32:27;7.60;99.90
51950;DHT22;37974;53.218;6.640;2024-01-25T13:34:52;7.60;99.90
51950;DHT22;37974;53.218;6.640;2024-01-25T13:37:18;7.60;99.90
51950;DHT22;37974;53.218;6.640;2024-01-25T13:39:44;7.70;99.90
51950;DHT22;37974;53.218;6.640;2024-01-25T13:42:10;7.70;99.90
51950;DHT22;37974;53.218;6.640;2024-01-25T13:44:35;7.70;99.90
51950;DHT22;37974;53.218;6.640;2024-01-25T13:47:04;7.70;99.90
51950;DHT22;37974;53.218;6.640;2024-01-25T13:49:29;7.70;99.90
51950;DHT22;37974;53.218;6.640;2024-01-25T13:51:55;7.80;99.90
51950;DHT22;37974;53.218;6.640;2024-01-25T13:54:21;7.80;99.90
51950;DHT22;37974;53.218;6.640;2024-01-25T13:56:46;7.70;99.90
51950;DHT22;37974;53.218;6.640;2024-01-25T13:59:12;7.70;99.90
51950;DHT22;37974;53.218;6.640;2024-01-25T14:01:38;7.70;99.90
51950;DHT22;37974;53.218;6.640;2024-01-25T14:04:04;7.60;99.90
51950;DHT22;37974;53.218;6.640;2024-01-25T14:06:30;7.60;99.90
51950;DHT22;37974;53.218;6.640;2024-01-25T14:08:55;7.50;99.90
51950;DHT22;37974;53.218;6.640;2024-01-25T14:11:21;7.50;99.90
51950;DHT22;37974;53.218;6.640;2024-01-25T14:13:47;7.60;99.90
51950;DHT22;37974;53.218;6.640;2024-01-25T14:16:13;7.60;99.90
51950;DHT22;37974;53.218;6.640;2024-01-25T14:18:43;7.60;99.90
51950;DHT22;37974;53.218;6.640;2024-01-25T14:21:10;7.60;99.90
51950;DHT22;37974;53.218;6.640;2024-01-25T14:23:35;7.60;99.90
51950;DHT22;37974;53.218;6.640;2024-01-25T14:26:01;7.50;99.90
51950;DHT22;37974;53.218;6.640;2024-01-25T14:28:27;7.50;99.90
51950;DHT22;37974;53.218;6.640;2024-01-25T14:30:53;7.50;99.90
51950;DHT22;37974;53.218;6.640;2024-01-25T14:33:18;7.40;99.90
51950;DHT22;37974;53.218;6.640;2024-01-25T14:35:44;7.40;99.90
51950;DHT22;37974;53.218;6.640;2024-01-25T14:38:10;7.30;99.90
51950;DHT22;37974;53.218;6.640;2024-01-25T14:40:36;7.20;99.90
51950;DHT22;37974;53.218;6.640;2024-01-25T14:43:02;7.20;99.90
51950;DHT22;37974;53.218;6.640;2024-01-25T14:45:28;7.10;99.90
51950;DHT22;37974;53.218;6.640;2024-01-25T14:47:56;7.00;99.90
51950;DHT22;37974;53.218;6.640;2024-01-25T14:50:21;7.00;99.90
51950;DHT22;37974;53.218;6.640;2024-01-25T14:52:47;6.90;99.90
51950;DHT22;37974;53.218;6.640;2024-01-25T14:55:13;6.90;99.90
51950;DHT22;37974;53.218;6.640;2024-01-25T14:57:39;6.80;99.90
51950;DHT22;37974;53.218;6.640;2024-01-25T15:00:05;6.70;99.90
51950;DHT22;37974;53.218;6.640;2024-01-25T15:02:32;6.70;99.90
51950;DHT22;37974;53.218;6.640;2024-01-25T15:04:58;6.60;99.90
51950;DHT22;37974;53.218;6.640;2024-01-25T15:07:24;6.50;99.90
51950;DHT22;37974;53.218;6.640;2024-01-25T15:09:50;6.50;99.90
51950;DHT22;37974;53.218;6.640;2024-01-25T15:12:16;6.50;99.90
51950;DHT22;37974;53.218;6.640;2024-01-25T15:14:42;6.40;99.90
51950;DHT22;37974;53.218;6.640;2024-01-25T15:17:07;6.40;99.90
51950;DHT22;37974;53.218;6.640;2024-01-25T15:19:33;6.30;99.90
51950;DHT22;37974;53.218;6.640;2024-01-25T15:21:59;6.30;99.90
51950;DHT22;37974;53.218;6.640;2024-01-25T15:24:25;6.30;99.90
51950;DHT22;37974;53.218;6.640;2024-01-25T15:26:52;6.30;99.90
51950;DHT22;37974;53.218;6.640;2024-01-25T15:29:18;6.30;99.90
51950;DHT22;37974;53.218;6.640;2024-01-25T15:31:44;6.40;99.90
51950;DHT22;37974;53.218;6.640;2024-01-25T15:34:10;6.30;99.90
51950;DHT22;37974;53.218;6.640;2024-01-25T15:36:35;6.30;99.90
51950;DHT22;37974;53.218;6.640;2024-01-25T15:39:01;6.40;99.90
51950;DHT22;37974;53.218;6.640;2024-01-25T15:41:29;6.30;99.90